Dunellen, New Jersey
Current Conditions -  °F | °C
As of 6:35 PM on Wednesday 22 Oct 2014 (Local Time) from KSMQ Reporting Station
Moderate Rain Moderate Rain  
Wind Chill: 53°   Ceiling: 4200
Heat Index: 53°   Visibility: 3mi
Dew Point: 49°   Wind: 9mph
Humidity: 86%   Direction: 350°N
Pressure: 29.83"   Gusts: NA
Location:  40.59°N, 74.46°W
Report Text: KSMQ 222235Z AUTO 35008KT 3SM RA BR FEW025 BKN042 OVC049 12/09 A2983 RMK AO2 P0005 T01170094
Loading
Personal Weather Stations






























Interactive Weather Map
Tropical Storm Tracking
New forecast layout! Learn more

10-Day Weather Forecast

Advertisements
Track Severe Weather on mobile